Terminal Aerodrome Forecast
Issued by NWS Green Bay, WI

Home | Current Version | Previous Version | Text Only | Print | Product List | Glossary On
Versions: 1 2 3 4 5 6 7 8 9 10 11 12 13 14 15 16 17 18 19 20 21 22 23 24 25 26 27 28 29 30 31 32 33 34 35 36 37 38 39 40
000
FTUS43 KGRB 222300
TAFGRB
TAF
KGRB 222323Z 2300/2324 21005KT 1/4SM FG VV002
      TEMPO 2302/2306 1SM BR OVC005
     FM230600 18008KT 1SM -DZ BR OVC004
      TEMPO 2308/2312 1/4SM -RA FG VV001
     FM231200 18009KT 1SM -RA BR OVC003
     FM231500 18011KT 1 1/2SM -RA BR OVC006
     FM232100 15007KT 2SM -RA BR OVC005=

USA.gov is the U.S. government's official web portal to all federal, state and local government web resources and services.